Time;durP1;ratioP1;P1;durP2;ratioP2;P2;SDS_P1;SDS_P2;PMS_P1;PMS_P2;Temp;Humidity;BMP_temperature;BMP_pressure;BME280_temperature;BME280_humidity;BME280_pressure;Samples;Min_cycle;Max_cycle;Signal;HPM_P1;HPM_P2
2022/01/22 00:01:37;;;;;;;7.63;3.43;;;;;;;-145.06;0.00;60892.56;4854761;28;20440;-88
2022/01/22 00:04:15;;;;;;;5.95;3.70;;;;;;;-145.06;0.00;60892.56;4853152;28;20275;-88
2022/01/22 00:06:55;;;;;;;8.47;4.33;;;;;;;-145.06;0.00;60892.56;4855660;28;20025;-87
2022/01/22 00:09:38;;;;;;;6.45;3.80;;;;;;;-145.06;0.00;60892.56;4855795;28;20033;-88
2022/01/22 00:15:13;;;;;;;6.75;3.78;;;;;;;-145.06;0.00;60892.56;4856179;28;20475;-88
2022/01/22 00:17:52;;;;;;;9.40;4.25;;;;;;;-145.06;0.00;60892.56;4853586;28;20057;-88
2022/01/22 00:20:31;;;;;;;8.77;4.47;;;;;;;-145.06;0.00;60892.56;4854848;28;20021;-89
2022/01/22 00:23:10;;;;;;;6.32;4.18;;;;;;;-145.06;0.00;60892.56;4849192;28;20061;-88
2022/01/22 00:25:49;;;;;;;6.32;3.97;;;;;;;-145.06;0.00;60892.56;4855070;28;20388;-88
2022/01/22 00:28:28;;;;;;;11.10;5.20;;;;;;;-145.06;0.00;60892.56;4859248;28;20033;-88
2022/01/22 00:31:07;;;;;;;10.75;5.57;;;;;;;-145.06;0.00;60892.56;4856151;28;20055;-87
2022/01/22 00:33:46;;;;;;;8.67;5.00;;;;;;;-145.06;0.00;60892.56;4853942;28;20049;-87
2022/01/22 00:36:25;;;;;;;8.80;4.43;;;;;;;-145.06;0.00;60892.56;4853621;28;20121;-88
2022/01/22 00:39:04;;;;;;;7.32;4.13;;;;;;;-145.06;0.00;60892.56;4849547;28;20589;-89
2022/01/22 00:41:43;;;;;;;5.82;4.22;;;;;;;-145.06;0.00;60892.56;4853712;28;20045;-87
2022/01/22 00:44:22;;;;;;;6.18;4.40;;;;;;;-145.06;0.00;60892.56;4853130;28;20034;-87
2022/01/22 00:47:02;;;;;;;8.90;4.73;;;;;;;-145.06;0.00;60892.56;4854950;28;20072;-88
2022/01/22 00:49:41;;;;;;;6.18;4.30;;;;;;;5.16;0.00;60892.56;4875454;28;20045;-88
2022/01/22 00:52:20;;;;;;;6.47;4.00;;;;;;;-145.06;0.00;60892.56;4856140;28;20061;-89
2022/01/22 00:54:59;;;;;;;5.50;3.47;;;;;;;-145.06;0.00;60892.56;4856644;28;20280;-88
2022/01/22 00:57:40;;;;;;;5.13;3.73;;;;;;;-145.06;0.00;60892.56;4869348;28;20056;-87
2022/01/22 01:00:19;;;;;;;5.43;3.53;;;;;;;-145.06;0.00;60892.56;4861662;28;20272;-87
2022/01/22 01:02:58;;;;;;;8.47;4.43;;;;;;;-145.06;0.00;60892.56;4854451;28;20127;-87
2022/01/22 01:05:37;;;;;;;5.60;4.00;;;;;;;-145.06;0.00;60892.56;4850819;28;20033;-88
2022/01/22 01:08:16;;;;;;;6.70;3.87;;;;;;;-145.06;0.00;60892.56;4854328;28;20037;-88
2022/01/22 01:10:55;;;;;;;6.50;4.50;;;;;;;-145.06;0.00;60892.56;4854363;28;20371;-87
2022/01/22 01:13:41;;;;;;;9.33;5.67;;;;;;;-145.06;0.00;60892.56;4869315;28;20400;-88
2022/01/22 01:16:33;;;;;;;9.75;5.05;;;;;;;-145.06;0.00;60892.56;4856560;28;20276;-87
2022/01/22 01:34:11;;;;;;;8.68;6.05;;;;;;;-145.06;0.00;60892.56;4853483;28;20045;-88
2022/01/22 01:36:50;;;;;;;10.75;6.32;;;;;;;-145.06;0.00;60892.56;4855365;28;20033;-88
2022/01/22 01:39:32;;;;;;;7.60;5.45;;;;;;;-145.06;0.00;60892.56;4847301;28;20045;-88
2022/01/22 01:42:20;;;;;;;10.75;5.95;;;;;;;-145.06;0.00;60892.56;4853866;28;20546;-88
2022/01/22 01:45:04;;;;;;;10.18;5.57;;;;;;;-145.06;0.00;60892.56;4855707;28;20033;-87
2022/01/22 01:47:46;;;;;;;9.70;5.65;;;;;;;187.52;0.00;60892.56;4868256;28;20130;-88
2022/01/22 01:50:26;;;;;;;7.03;4.82;;;;;;;-145.06;0.00;60892.56;4862826;28;20041;-86
2022/01/22 01:53:15;;;;;;;;;;;;;;;-145.06;0.00;60892.56;4855461;28;20029;-87
2022/01/22 01:58:36;;;;;;;9.07;5.22;;;;;;;-145.06;0.00;60892.56;4857900;28;20030;-87
2022/01/22 02:01:15;;;;;;;6.57;4.97;;;;;;;-145.06;0.00;60892.56;4858701;28;20394;-87
2022/01/22 02:03:54;;;;;;;9.43;5.82;;;;;;;-145.06;0.00;60892.56;4854335;28;20359;-87
2022/01/22 02:06:33;;;;;;;7.50;4.87;;;;;;;-145.06;0.00;60892.56;4848595;28;20104;-86
2022/01/22 02:09:12;;;;;;;7.47;4.57;;;;;;;-145.06;0.00;60892.56;4857726;28;20037;-88
2022/01/22 02:11:59;;;;;;;5.40;4.45;;;;;;;4.57;0.00;60892.56;4858049;28;20279;-88
2022/01/22 02:23:36;;;;;;;6.75;4.65;;;;;;;-145.06;0.00;60892.56;4855517;28;20041;-88
2022/01/22 02:26:15;;;;;;;8.52;6.07;;;;;;;-145.06;0.00;60892.56;4853251;28;20483;-88
2022/01/22 02:28:55;;;;;;;9.27;6.25;;;;;;;-145.06;0.00;60892.56;4857939;28;20041;-87
2022/01/22 02:31:44;;;;;;;11.48;5.85;;;;;;;-145.06;0.00;60892.56;4855527;28;20033;-88
2022/01/22 02:34:41;;;;;;;7.15;5.43;;;;;;;-145.06;0.00;60892.56;4857159;28;20022;-87
2022/01/22 02:37:23;;;;;;;10.13;6.85;;;;;;;-145.06;0.00;60892.56;4858525;28;20038;-88
2022/01/22 02:40:21;;;;;;;9.35;6.72;;;;;;;-145.06;0.00;60892.56;4854806;28;20034;-88
2022/01/22 02:43:00;;;;;;;8.73;6.10;;;;;;;-145.06;0.00;60892.56;4855133;28;20037;-88
2022/01/22 02:45:42;;;;;;;10.93;6.90;;;;;;;-145.06;0.00;60892.56;4845020;28;20041;-87
2022/01/22 02:48:21;;;;;;;12.07;7.53;;;;;;;-145.06;0.00;60892.56;4858983;28;20124;-87
2022/01/22 02:51:00;;;;;;;9.27;6.93;;;;;;;-145.06;0.00;60892.56;4861387;28;20117;-87
2022/01/22 02:53:39;;;;;;;10.55;7.03;;;;;;;-145.06;0.00;60892.56;4857174;28;20042;-88
2022/01/22 02:56:18;;;;;;;10.27;6.70;;;;;;;-145.06;0.00;60892.56;4856977;28;20365;-87
2022/01/22 02:58:59;;;;;;;10.98;6.88;;;;;;;-145.06;0.00;60892.56;4856438;28;20436;-88
2022/01/22 03:01:38;;;;;;;9.48;5.93;;;;;;;-145.06;0.00;60892.56;4856983;28;20021;-87
2022/01/22 03:04:17;;;;;;;12.83;7.80;;;;;;;-145.06;0.00;60892.56;4866215;28;20119;-87
2022/01/22 03:06:56;;;;;;;10.90;6.93;;;;;;;-145.06;0.00;60892.56;4857600;28;20264;-87
2022/01/22 03:09:46;;;;;;;12.20;8.10;;;;;;;-145.06;0.00;60892.56;4855454;28;20061;-87
2022/01/22 03:29:34;;;;;;;13.27;8.00;;;;;;;-145.06;0.00;60892.56;4857649;28;20148;-87
2022/01/22 03:32:14;;;;;;;11.23;7.75;;;;;;;-145.06;0.00;60892.56;4856837;28;20392;-86
2022/01/22 03:37:35;;;;;;;14.52;7.57;;;;;;;-145.06;0.00;60892.56;4857595;28;20440;-87
2022/01/22 03:40:14;;;;;;;;;;;;;;;-145.06;0.00;60892.56;4856023;28;20030;-87
2022/01/22 03:42:55;;;;;;;12.30;7.40;;;;;;;-145.06;0.00;60892.56;4856010;28;19917;-87
2022/01/22 03:45:34;;;;;;;10.18;7.15;;;;;;;-145.06;0.00;60892.56;4856289;28;20061;-87
2022/01/22 03:48:13;;;;;;;9.73;7.17;;;;;;;-145.06;0.00;60892.56;4861185;28;20033;-88
2022/01/22 03:50:53;;;;;;;8.55;6.18;;;;;;;-145.06;0.00;60892.56;4855740;28;20033;-89
2022/01/22 03:53:32;;;;;;;9.65;5.88;;;;;;;-145.06;0.00;60892.56;4853441;28;21707;-88
2022/01/22 03:56:12;;;;;;;12.73;7.28;;;;;;;-145.06;0.00;60892.56;4856277;28;20375;-88
2022/01/22 03:58:51;;;;;;;8.70;6.25;;;;;;;-145.06;0.00;60892.56;4851413;28;20026;-88
2022/01/22 04:04:42;;;;;;;8.73;6.13;;;;;;;-145.06;0.00;60892.56;4865001;28;20041;-88
2022/01/22 04:10:04;;;;;;;7.63;5.75;;;;;;;-145.06;0.00;60892.56;4855473;28;20030;-87
2022/01/22 04:12:52;;;;;;;7.65;5.05;;;;;;;-145.06;0.00;60892.56;4855818;28;20037;-88
2022/01/22 04:15:35;;;;;;;6.43;4.95;;;;;;;-145.06;0.00;60892.56;4856171;28;20029;-88
2022/01/22 04:27:13;;;;;;;6.53;4.35;;;;;;;-145.06;0.00;60892.56;4847793;28;20065;-87
2022/01/22 04:29:57;;;;;;;5.30;4.10;;;;;;;4.94;0.00;60892.56;4847384;28;20033;-87
2022/01/22 04:32:36;;;;;;;6.32;3.95;;;;;;;5.49;0.00;60892.56;4871319;28;20033;-88
2022/01/22 04:35:17;;;;;;;5.25;3.60;;;;;;;-145.06;0.00;60892.56;4865764;28;20033;-87
2022/01/22 04:37:56;;;;;;;5.45;3.88;;;;;;;-145.06;0.00;60892.56;4855623;28;20041;-88
2022/01/22 04:40:35;;;;;;;5.87;4.30;;;;;;;5.00;0.00;60892.56;4854894;28;20642;-88
2022/01/22 04:43:15;;;;;;;8.57;5.07;;;;;;;-145.06;0.00;60892.56;4854030;28;20376;-89
2022/01/22 04:46:07;;;;;;;8.27;4.82;;;;;;;5.03;0.00;60892.56;4855523;28;20072;-88
2022/01/22 04:57:25;;;;;;;4.70;3.78;;;;;;;10.68;0.00;60892.56;4848077;28;20033;-86
2022/01/22 05:00:10;;;;;;;5.55;4.70;;;;;;;-145.06;0.00;60892.56;4855123;28;20100;-87
2022/01/22 05:02:50;;;;;;;6.80;4.10;;;;;;;-145.06;0.00;60892.56;4867637;28;20558;-89
2022/01/22 05:05:29;;;;;;;;;;;;;;;-145.06;0.00;60892.56;4855918;28;20041;-88
2022/01/22 05:08:08;;;;;;;8.07;5.03;;;;;;;-145.06;0.00;60892.56;4855533;28;19912;-88
2022/01/22 05:10:47;;;;;;;9.63;5.33;;;;;;;-145.06;0.00;60892.56;4854338;28;20037;-88
2022/01/22 05:13:26;;;;;;;6.70;5.33;;;;;;;21.08;0.00;60892.56;4855518;28;20034;-87
2022/01/22 05:16:05;;;;;;;6.80;5.03;;;;;;;-145.06;0.00;60892.56;4854128;28;20033;-87
2022/01/22 05:18:52;;;;;;;6.93;5.57;;;;;;;5.49;0.00;60892.56;4866966;28;20032;-89
2022/01/22 05:21:34;;;;;;;8.48;5.80;;;;;;;-145.06;0.00;60892.56;4870941;28;20068;-89
2022/01/22 05:24:18;;;;;;;8.07;5.32;;;;;;;-145.06;0.00;60892.56;4853299;28;20491;-87
2022/01/22 05:30:49;;;;;;;9.15;5.90;;;;;;;-145.06;0.00;60892.56;4851003;28;20022;-86
2022/01/22 05:38:31;;;;;;;9.77;5.60;;;;;;;10.68;0.00;60892.56;4855492;28;20025;-87
2022/01/22 05:41:12;;;;;;;7.43;5.32;;;;;;;-145.06;0.00;60892.56;4860895;28;20034;-88
2022/01/22 05:43:51;;;;;;;11.50;6.97;;;;;;;-145.06;0.00;60892.56;4853351;28;20033;-88
2022/01/22 05:46:30;;;;;;;10.00;6.90;;;;;;;-145.06;0.00;60892.56;4854518;28;20029;-88
2022/01/22 05:49:09;;;;;;;9.43;7.25;;;;;;;5.23;0.00;60892.56;4854343;28;20045;-88
2022/01/22 05:51:51;;;;;;;9.00;6.35;;;;;;;-145.06;0.00;60892.56;4855080;28;20037;-88
2022/01/22 06:00:08;;;;;;;8.98;5.82;;;;;;;5.23;0.00;60892.56;4855209;28;20368;-89
2022/01/22 06:02:47;;;;;;;7.18;5.53;;;;;;;5.22;0.00;60892.56;4854752;28;20033;-88
2022/01/22 06:05:26;;;;;;;9.07;5.80;;;;;;;-145.06;0.00;60892.56;4858414;28;20037;-87
2022/01/22 06:08:05;;;;;;;9.80;6.03;;;;;;;-145.06;0.00;60892.56;4851889;28;20041;-89
2022/01/22 06:10:47;;;;;;;6.90;5.10;;;;;;;5.26;0.00;60892.56;4854025;28;20033;-88
2022/01/22 06:13:43;;;;;;;8.68;5.93;;;;;;;5.27;0.00;60892.56;4851423;28;20483;-89
2022/01/22 06:16:23;;;;;;;8.32;6.25;;;;;;;-145.06;0.00;60892.56;4853257;28;20026;-88
2022/01/22 06:19:02;;;;;;;7.78;5.90;;;;;;;10.68;0.00;60892.56;4869093;28;20120;-88
2022/01/22 06:21:42;;;;;;;8.60;6.07;;;;;;;5.34;0.00;60892.56;4853908;28;20033;-89
2022/01/22 06:24:22;;;;;;;9.50;6.90;;;;;;;5.41;0.00;60892.56;4854159;28;20037;-88
2022/01/22 06:27:02;;;;;;;8.80;6.50;;;;;;;-145.06;0.00;60892.56;4852081;28;20041;-88
2022/01/22 06:29:41;;;;;;;6.53;5.63;;;;;;;-145.06;0.00;60892.56;4855112;28;20112;-89
2022/01/22 06:32:20;;;;;;;10.13;6.72;;;;;;;-145.06;0.00;60892.56;4857239;28;20041;-89
2022/01/22 06:34:59;;;;;;;9.07;6.77;;;;;;;-145.06;0.00;60892.56;4850977;28;20372;-88
2022/01/22 06:37:38;;;;;;;7.97;5.82;;;;;;;5.42;0.00;60892.56;4853737;28;20029;-88
2022/01/22 06:42:56;;;;;;;6.97;5.70;;;;;;;5.38;0.00;60892.56;4854559;28;20260;-88
2022/01/22 06:45:35;;;;;;;7.82;6.22;;;;;;;21.08;0.00;60892.56;4853576;28;20069;-88
2022/01/22 06:48:14;;;;;;;9.38;6.10;;;;;;;5.45;0.00;60892.56;4856017;28;20065;-89
2022/01/22 06:50:53;;;;;;;10.40;7.25;;;;;;;-145.06;0.00;60892.56;4862472;28;20034;-87
2022/01/22 06:53:40;;;;;;;7.30;6.03;;;;;;;-145.06;0.00;60892.56;4856219;28;20037;-88
2022/01/22 06:56:21;;;;;;;7.97;5.97;;;;;;;5.48;0.00;60892.56;4856400;28;20061;-88
2022/01/22 06:59:00;;;;;;;8.02;5.90;;;;;;;-145.06;0.00;60892.56;4843753;28;20025;-88
2022/01/22 07:01:40;;;;;;;8.23;5.97;;;;;;;-145.06;0.00;60892.56;4856454;28;20061;-88
2022/01/22 07:04:18;;;;;;;6.93;5.20;;;;;;;-145.06;0.00;60892.56;4861351;28;20064;-89
2022/01/22 07:06:58;;;;;;;6.85;5.40;;;;;;;-145.06;0.00;60892.56;4856623;28;20073;-87
2022/01/22 07:09:37;;;;;;;7.50;5.70;;;;;;;-145.06;0.00;60892.56;4853938;28;20512;-88
2022/01/22 07:12:16;;;;;;;7.88;5.50;;;;;;;-145.06;0.00;60892.56;4857001;28;20041;-88
2022/01/22 07:14:55;;;;;;;6.07;4.88;;;;;;;-145.06;0.00;60892.56;4855693;28;20364;-89
2022/01/22 07:17:36;;;;;;;8.40;5.95;;;;;;;-145.06;0.00;60892.56;4854557;28;20744;-89
2022/01/22 07:20:24;;;;;;;7.47;5.30;;;;;;;-145.06;0.00;60892.56;4852292;28;21382;-88
2022/01/22 07:23:14;;;;;;;10.23;5.53;;;;;;;-145.06;0.00;60892.56;4854834;28;20057;-89
2022/01/22 07:25:53;;;;;;;9.02;6.07;;;;;;;-145.06;0.00;60892.56;4852137;28;20038;-89
2022/01/22 07:28:32;;;;;;;8.70;6.50;;;;;;;-145.06;0.00;60892.56;4856955;28;20033;-89
2022/01/22 07:31:12;;;;;;;8.50;6.38;;;;;;;5.60;0.00;60892.56;4854965;28;20033;-89
2022/01/22 07:33:51;;;;;;;7.97;5.82;;;;;;;-145.06;0.00;60892.56;4860023;28;20064;-89
2022/01/22 07:36:30;;;;;;;11.07;6.20;;;;;;;187.52;0.00;60892.56;4856138;28;20021;-89
2022/01/22 07:39:09;;;;;;;7.63;5.95;;;;;;;-145.06;0.00;60892.56;4856492;28;20664;-88
2022/01/22 07:41:51;;;;;;;6.93;5.28;;;;;;;5.64;0.00;60892.56;4855958;28;20056;-88
2022/01/22 07:44:29;;;;;;;7.22;5.53;;;;;;;6.79;0.00;60892.56;4867240;28;20773;-89
2022/01/22 07:47:08;;;;;;;7.57;5.47;;;;;;;6.79;0.00;60892.56;4854588;28;20531;-88
2022/01/22 07:49:47;;;;;;;8.10;5.13;;;;;;;-145.06;0.00;60892.56;4867121;28;20029;-89
2022/01/22 07:52:27;;;;;;;7.93;5.57;;;;;;;-145.06;0.00;60892.56;4851888;28;20064;-88
2022/01/22 07:55:07;;;;;;;8.50;5.55;;;;;;;-145.06;0.00;60892.56;4852079;28;20105;-88
2022/01/22 07:57:47;;;;;;;6.78;5.30;;;;;;;-145.06;0.00;60892.56;4855117;28;20034;-89
2022/01/22 08:00:26;;;;;;;6.35;5.15;;;;;;;5.72;0.00;60892.56;4857177;28;20057;-89
2022/01/22 08:03:06;;;;;;;8.80;5.30;;;;;;;-145.06;0.00;60892.56;4863401;28;20045;-88
2022/01/22 08:05:46;;;;;;;7.05;5.00;;;;;;;-145.06;0.00;60892.56;4868441;28;21145;-88
2022/01/22 08:08:25;;;;;;;10.32;7.28;;;;;;;-145.06;0.00;60892.56;4865273;28;20377;-89
2022/01/22 08:11:04;;;;;;;9.33;6.83;;;;;;;-145.06;0.00;60892.56;4863119;28;20064;-87
2022/01/22 08:13:43;;;;;;;8.57;6.30;;;;;;;187.52;0.00;60892.56;4857230;28;20271;-88
2022/01/22 08:16:22;;;;;;;10.00;6.47;;;;;;;-145.06;0.00;60892.56;4855923;28;20069;-88
2022/01/22 08:19:01;;;;;;;8.52;6.47;;;;;;;-145.06;0.00;60892.56;4858385;28;20264;-86
2022/01/22 08:21:41;;;;;;;11.40;7.07;;;;;;;-145.06;0.00;60892.56;4864778;28;20033;-87
2022/01/22 08:24:25;;;;;;;8.88;6.40;;;;;;;-145.06;0.00;60892.56;4855792;28;20045;-88
2022/01/22 08:27:21;;;;;;;7.95;6.03;;;;;;;-145.06;0.00;60892.56;4855696;28;20041;-88
2022/01/22 08:29:59;;;;;;;8.10;5.55;;;;;;;-145.06;0.00;60892.56;4845556;28;20124;-89
2022/01/22 08:38:15;;;;;;;7.05;5.30;;;;;;;-145.06;0.00;60892.56;4850465;28;20025;-88
2022/01/22 08:40:55;;;;;;;9.45;6.85;;;;;;;-145.06;0.00;60892.56;4848936;28;20530;-89
2022/01/22 08:43:34;;;;;;;7.90;6.20;;;;;;;-145.06;0.00;60892.56;4863880;28;20033;-88
2022/01/22 08:46:13;;;;;;;8.93;6.90;;;;;;;-145.06;0.00;60892.56;4845379;28;20065;-88
2022/01/22 08:48:52;;;;;;;9.25;6.80;;;;;;;-145.06;0.00;60892.56;4850939;28;20898;-87
2022/01/22 08:51:32;;;;;;;14.68;8.80;;;;;;;-145.06;0.00;60892.56;4854810;28;20038;-90
2022/01/22 08:54:11;;;;;;;12.10;8.48;;;;;;;-145.06;0.00;60892.56;4852264;28;20372;-89
2022/01/22 08:56:50;;;;;;;14.10;9.48;;;;;;;-145.06;0.00;60892.56;4856707;28;20458;-87
2022/01/22 08:59:30;;;;;;;11.40;8.90;;;;;;;-145.06;0.00;60892.56;4854534;28;20558;-88
2022/01/22 09:02:08;;;;;;;12.88;8.93;;;;;;;-145.06;0.00;60892.56;4857701;28;20036;-88
2022/01/22 09:04:47;;;;;;;14.70;9.90;;;;;;;-145.06;0.00;60892.56;4857241;28;20029;-88
2022/01/22 09:07:26;;;;;;;14.88;10.55;;;;;;;-145.06;0.00;60892.56;4850287;28;20041;-88
2022/01/22 09:10:06;;;;;;;11.68;8.73;;;;;;;-145.06;0.00;60892.56;4852196;28;20064;-89
2022/01/22 09:12:45;;;;;;;15.10;9.25;;;;;;;-145.06;0.00;60892.56;4854026;28;20029;-89
2022/01/22 09:15:25;;;;;;;16.73;11.20;;;;;;;-145.06;0.00;60892.56;4853090;28;20364;-88
2022/01/22 09:18:05;;;;;;;13.93;10.02;;;;;;;-145.06;0.00;60892.56;4852334;28;20041;-88
2022/01/22 09:21:01;;;;;;;12.48;8.73;;;;;;;-145.06;0.00;60892.56;4857152;28;20029;-87
2022/01/22 09:23:43;;;;;;;14.30;9.60;;;;;;;-145.06;0.00;60892.56;4852596;28;20723;-88
2022/01/22 09:26:22;;;;;;;11.63;8.02;;;;;;;-145.06;0.00;60892.56;4863702;28;20033;-88
2022/01/22 09:29:03;;;;;;;10.23;7.93;;;;;;;-145.06;0.00;60892.56;4849294;28;20026;-88
2022/01/22 09:31:42;;;;;;;11.50;8.55;;;;;;;-145.06;0.00;60892.56;4867736;28;20112;-87
2022/01/22 09:34:21;;;;;;;12.80;8.48;;;;;;;-145.06;0.00;60892.56;4854996;28;20033;-89
2022/01/22 09:37:00;;;;;;;13.27;8.77;;;;;;;6.18;0.00;60892.56;4850515;28;20065;-87
2022/01/22 09:39:40;;;;;;;11.27;7.83;;;;;;;-145.06;0.00;60892.56;4854445;28;20471;-89
2022/01/22 09:42:19;;;;;;;10.93;8.63;;;;;;;6.46;0.00;60892.56;4866034;28;21088;-88
2022/01/22 09:44:58;;;;;;;13.65;9.23;;;;;;;6.22;0.00;60892.56;4851921;28;20680;-88
2022/01/22 09:47:37;;;;;;;16.90;11.68;;;;;;;6.79;0.00;60892.56;4863107;28;20057;-87
2022/01/22 09:50:22;;;;;;;17.92;11.50;;;;;;;6.79;0.00;60892.56;4853236;28;20480;-89
2022/01/22 09:53:02;;;;;;;14.32;10.77;;;;;;;-145.06;0.00;60892.56;4846878;28;20033;-89
2022/01/22 09:55:41;;;;;;;15.70;10.82;;;;;;;6.24;0.00;60892.56;4853760;28;20037;-89
2022/01/22 09:58:21;;;;;;;18.83;12.15;;;;;;;-145.06;0.00;60892.56;4852310;28;20033;-89
2022/01/22 10:01:21;;;;;;;17.43;12.27;;;;;;;-145.06;0.00;60892.56;4853643;28;20041;-89
2022/01/22 10:04:02;;;;;;;16.33;11.32;;;;;;;-145.06;0.00;60892.56;4868005;28;20045;-90
2022/01/22 10:06:52;;;;;;;15.40;10.52;;;;;;;10.68;0.00;60892.56;4853483;28;20034;-89
2022/01/22 10:09:46;;;;;;;13.20;10.13;;;;;;;-145.06;0.00;60892.56;4851988;28;20030;-89
2022/01/22 10:12:27;;;;;;;16.65;11.00;;;;;;;-145.06;0.00;60892.56;4854843;28;20033;-89
2022/01/22 10:15:18;;;;;;;15.25;10.52;;;;;;;-145.06;0.00;60892.56;4854310;28;20380;-91
2022/01/22 10:17:58;;;;;;;15.38;10.98;;;;;;;-145.06;0.00;60892.56;4857716;28;20037;-90
2022/01/22 10:20:39;;;;;;;15.35;10.48;;;;;;;-145.06;0.00;60892.56;4859234;28;20033;-90
2022/01/22 10:23:24;;;;;;;16.13;10.05;;;;;;;-145.06;0.00;60892.56;4853977;28;20495;-90
2022/01/22 10:26:04;;;;;;;13.13;9.57;;;;;;;-145.06;0.00;60892.56;4845275;28;20113;-90
2022/01/22 10:28:46;;;;;;;;;;;;;;;-145.06;0.00;60892.56;4857871;28;20037;-89
2022/01/22 10:31:41;;;;;;;14.15;9.82;;;;;;;8.08;0.00;60892.56;4858188;28;19917;-90
2022/01/22 10:34:20;;;;;;;12.32;8.93;;;;;;;-145.06;0.00;60892.56;4866739;28;20041;-90
2022/01/22 10:37:00;;;;;;;14.18;9.70;;;;;;;-145.06;0.00;60892.56;4858477;28;20033;-90
2022/01/22 10:39:39;;;;;;;;;;;;;;;-145.06;0.00;60892.56;4850502;28;20037;-90
2022/01/22 10:42:22;;;;;;;9.27;7.22;;;;;;;6.34;0.00;60892.56;4854115;28;20232;-90
2022/01/22 10:45:09;;;;;;;11.45;7.97;;;;;;;6.79;0.00;60892.56;4876934;28;20136;-90
2022/01/22 10:47:48;;;;;;;10.25;7.35;;;;;;;-145.06;0.00;60892.56;4878788;28;20463;-89
2022/01/22 10:50:27;;;;;;;13.13;8.80;;;;;;;6.48;0.00;60892.56;4850161;28;20029;-89
2022/01/22 10:53:06;;;;;;;11.32;8.30;;;;;;;6.79;0.00;60892.56;4864836;28;20041;-90
2022/01/22 10:56:03;;;;;;;14.47;9.57;;;;;;;6.79;0.00;60892.56;4849420;28;20132;-89
2022/01/22 10:58:56;;;;;;;11.48;7.72;;;;;;;-145.06;0.00;60892.56;4850166;28;20037;-89
2022/01/22 11:01:55;;;;;;;11.30;7.95;;;;;;;6.79;0.00;60892.56;4852822;28;20033;-90
2022/01/22 11:04:34;;;;;;;12.55;8.57;;;;;;;6.79;0.00;60892.56;4849666;28;20072;-90
2022/01/22 11:07:19;;;;;;;13.18;9.25;;;;;;;6.66;0.00;60892.56;4848991;28;20029;-89
2022/01/22 11:09:59;;;;;;;10.15;7.72;;;;;;;6.69;0.00;60892.56;4849153;28;20811;-90
2022/01/22 11:12:38;;;;;;;12.30;9.00;;;;;;;6.71;0.00;60892.56;4850762;28;20025;-89
2022/01/22 11:15:17;;;;;;;14.82;9.05;;;;;;;6.72;0.00;60892.56;4849770;28;20037;-89
2022/01/22 11:17:57;;;;;;;11.03;7.93;;;;;;;-145.06;0.00;60892.56;4848767;28;20748;-89
2022/01/22 11:20:38;;;;;;;11.43;7.78;;;;;;;-145.06;0.00;60892.56;4848654;28;20025;-89
2022/01/22 11:23:19;;;;;;;13.32;8.38;;;;;;;-145.06;0.00;60892.56;4849306;28;20033;-89
2022/01/22 11:26:00;;;;;;;11.10;7.65;;;;;;;-145.06;0.00;60892.56;4850612;28;20033;-88
2022/01/22 11:28:40;;;;;;;14.27;9.05;;;;;;;-145.06;0.00;60892.56;4853298;28;20037;-88
2022/01/22 11:31:22;;;;;;;12.88;9.35;;;;;;;-145.06;0.00;60892.56;4860287;28;20037;-90
2022/01/22 11:34:02;;;;;;;14.30;9.27;;;;;;;-145.06;0.00;60892.56;4843666;28;20068;-89
2022/01/22 11:37:13;;;;;;;11.77;8.07;;;;;;;-145.06;0.00;60892.56;4848603;28;20526;-90
2022/01/22 11:40:09;;;;;;;14.15;9.88;;;;;;;-145.06;0.00;60892.56;4868822;28;20105;-90
2022/01/22 11:45:45;;;;;;;9.27;6.43;;;;;;;-145.06;0.00;60892.56;4853279;28;20447;-89
2022/01/22 11:48:25;;;;;;;12.88;7.97;;;;;;;-145.06;0.00;60892.56;4847902;28;20108;-89
2022/01/22 11:51:22;;;;;;;11.52;8.05;;;;;;;-145.06;0.00;60892.56;4848313;28;20033;-89
2022/01/22 11:54:02;;;;;;;13.13;9.05;;;;;;;-145.06;0.00;60892.56;4861320;28;21103;-90
2022/01/22 11:56:44;;;;;;;12.85;8.65;;;;;;;-145.06;0.00;60892.56;4849280;28;20029;-90
2022/01/22 11:59:29;;;;;;;13.02;9.30;;;;;;;-145.06;0.00;60892.56;4848000;28;20041;-88
2022/01/22 12:02:14;;;;;;;12.13;8.25;;;;;;;-145.06;0.00;60892.56;4849192;28;20128;-90
2022/01/22 12:05:02;;;;;;;12.43;8.07;;;;;;;8.08;0.00;60892.56;4848147;28;20068;-89
2022/01/22 12:07:56;;;;;;;11.88;8.70;;;;;;;-145.06;0.00;60892.56;4850706;28;20108;-90
2022/01/22 12:10:43;;;;;;;13.40;8.32;;;;;;;-145.06;0.00;60892.56;4852309;28;20034;-89
2022/01/22 12:16:39;;;;;;;10.13;7.43;;;;;;;-145.06;0.00;60892.56;4857326;28;20037;-89
2022/01/22 12:19:46;;;;;;;10.43;6.15;;;;;;;-145.06;0.00;60892.56;4848891;28;20029;-90
2022/01/22 12:22:34;;;;;;;11.10;7.53;;;;;;;-145.06;0.00;60892.56;4845415;28;20621;-89
2022/01/22 12:25:14;;;;;;;11.15;7.57;;;;;;;-145.06;0.00;60892.56;4860968;28;20506;-90
2022/01/22 12:27:54;;;;;;;12.77;7.87;;;;;;;7.05;0.00;60892.56;4873565;28;20037;-87
2022/01/22 12:30:43;;;;;;;11.95;8.27;;;;;;;-145.06;0.00;60892.56;4849498;28;20026;-88
2022/01/22 12:33:28;;;;;;;11.82;8.07;;;;;;;-145.06;0.00;60892.56;4848533;28;20037;-90
2022/01/22 12:36:17;;;;;;;11.10;7.28;;;;;;;-145.06;0.00;60892.56;4851057;28;20440;-89
2022/01/22 12:39:03;;;;;;;10.98;7.35;;;;;;;-145.06;0.00;60892.56;4865855;28;20037;-89
2022/01/22 12:41:51;;;;;;;10.98;7.07;;;;;;;-145.06;0.00;60892.56;4865331;28;20037;-89
2022/01/22 12:44:35;;;;;;;11.15;7.85;;;;;;;-145.06;0.00;60892.56;4848491;28;20483;-90
2022/01/22 12:47:14;;;;;;;9.07;6.85;;;;;;;-145.06;0.00;60892.56;4849142;28;20384;-88
2022/01/22 12:50:08;;;;;;;9.40;6.45;;;;;;;-145.06;0.00;60892.56;4860950;28;20033;-88
2022/01/22 12:52:48;;;;;;;8.48;6.20;;;;;;;-145.06;0.00;60892.56;4848577;28;20467;-88
2022/01/22 12:55:48;;;;;;;;;;;;;;;-145.06;0.00;60892.56;4848496;28;20120;-89
2022/01/22 12:58:29;;;;;;;12.05;7.35;;;;;;;-145.06;0.00;60892.56;4850685;28;19917;-90
2022/01/22 13:01:17;;;;;;;9.77;6.82;;;;;;;-145.06;0.00;60892.56;4846581;28;20033;-89
2022/01/22 13:03:57;;;;;;;9.30;6.70;;;;;;;-145.06;0.00;60892.56;4856279;28;20045;-90
2022/01/22 13:06:39;;;;;;;;;;;;;;;-145.06;0.00;60892.56;4849161;28;20152;-89
2022/01/22 13:09:18;;;;;;;14.15;8.38;;;;;;;-145.06;0.00;60892.56;4859739;28;19917;-89
2022/01/22 13:11:58;;;;;;;10.50;7.78;;;;;;;-145.06;0.00;60892.56;4846458;28;20842;-89
2022/01/22 13:14:37;;;;;;;11.18;7.72;;;;;;;-145.06;0.00;60892.56;4846270;28;20036;-89
2022/01/22 13:17:16;;;;;;;10.43;7.13;;;;;;;-145.06;0.00;60892.56;4859270;28;20065;-89
2022/01/22 13:19:56;;;;;;;11.17;6.87;;;;;;;-145.06;0.00;60892.56;4849990;28;20124;-89
2022/01/22 13:22:37;;;;;;;9.73;6.70;;;;;;;-145.06;0.00;60892.56;4860553;28;20280;-90
2022/01/22 13:25:18;;;;;;;9.30;6.40;;;;;;;-145.06;0.00;60892.56;4859663;28;20064;-90
2022/01/22 13:28:00;;;;;;;9.27;6.47;;;;;;;-145.06;0.00;60892.56;4848415;28;20800;-90
2022/01/22 13:30:52;;;;;;;10.00;7.45;;;;;;;-145.06;0.00;60892.56;4862291;28;20037;-88
2022/01/22 13:49:07;;;;;;;10.25;7.60;;;;;;;-145.06;0.00;60892.56;4850822;28;20045;-89
2022/01/22 13:51:47;;;;;;;12.48;8.98;;;;;;;-145.06;0.00;60892.56;4851425;28;20041;-89
2022/01/22 13:54:36;;;;;;;13.10;8.73;;;;;;;-145.06;0.00;60892.56;4863138;28;20479;-89
2022/01/22 13:57:18;;;;;;;12.30;8.55;;;;;;;-145.06;0.00;60892.56;4851864;28;20033;-89
2022/01/22 13:59:57;;;;;;;12.23;8.85;;;;;;;-145.06;0.00;60892.56;4851403;28;20483;-88
2022/01/22 14:05:39;;;;;;;12.95;8.80;;;;;;;-145.06;0.00;60892.56;4850987;28;20318;-89
2022/01/22 14:08:33;;;;;;;11.32;8.25;;;;;;;-145.06;0.00;60892.56;4852329;28;20037;-89
2022/01/22 14:11:13;;;;;;;9.55;6.93;;;;;;;-145.06;0.00;60892.56;4863291;28;20041;-88
2022/01/22 14:14:04;;;;;;;12.07;7.57;;;;;;;-145.06;0.00;60892.56;4853143;28;20041;-88
2022/01/22 14:16:50;;;;;;;11.10;8.10;;;;;;;-145.06;0.00;60892.56;4859942;28;20041;-89
2022/01/22 14:19:29;;;;;;;12.70;8.10;;;;;;;-145.06;0.00;60892.56;4864630;28;20029;-88
2022/01/22 14:22:09;;;;;;;13.02;8.30;;;;;;;-145.06;0.00;60892.56;4857168;28;20101;-89
2022/01/22 14:24:48;;;;;;;8.57;6.82;;;;;;;-145.06;0.00;60892.56;4865462;28;20037;-89
2022/01/22 14:27:27;;;;;;;7.90;6.00;;;;;;;-145.06;0.00;60892.56;4864620;28;20037;-89
2022/01/22 14:30:06;;;;;;;9.02;6.88;;;;;;;-145.06;0.00;60892.56;4850899;28;20041;-89
2022/01/22 14:32:58;;;;;;;9.13;6.85;;;;;;;-145.06;0.00;60892.56;4851405;28;20037;-89
2022/01/22 14:35:38;;;;;;;12.40;7.60;;;;;;;-145.06;0.00;60892.56;4860310;28;20052;-89